sensor_id;sensor_type;location;lat;lon;timestamp;temperature;humidity
52481;DHT22;38393;52.404;13.532;2023-06-26T00:00:13;18.30;99.90
52481;DHT22;38393;52.404;13.532;2023-06-26T00:02:38;18.30;99.90
52481;DHT22;38393;52.404;13.532;2023-06-26T00:05:04;18.30;99.90
52481;DHT22;38393;52.404;13.532;2023-06-26T00:07:30;18.30;99.90
52481;DHT22;38393;52.404;13.532;2023-06-26T00:09:59;18.20;99.90
52481;DHT22;38393;52.404;13.532;2023-06-26T00:12:25;18.20;99.90
52481;DHT22;38393;52.404;13.532;2023-06-26T00:14:50;18.10;99.90
52481;DHT22;38393;52.404;13.532;2023-06-26T00:17:16;18.00;99.90
52481;DHT22;38393;52.404;13.532;2023-06-26T00:19:41;18.10;99.90
52481;DHT22;38393;52.404;13.532;2023-06-26T00:22:07;18.10;99.90
52481;DHT22;38393;52.404;13.532;2023-06-26T00:24:32;18.00;99.90
52481;DHT22;38393;52.404;13.532;2023-06-26T00:26:57;18.10;99.90
52481;DHT22;38393;52.404;13.532;2023-06-26T00:29:24;18.00;99.90
52481;DHT22;38393;52.404;13.532;2023-06-26T00:31:49;18.00;99.90
52481;DHT22;38393;52.404;13.532;2023-06-26T00:34:15;18.00;99.90
52481;DHT22;38393;52.404;13.532;2023-06-26T00:36:40;17.90;99.90
52481;DHT22;38393;52.404;13.532;2023-06-26T00:39:09;17.90;99.90
52481;DHT22;38393;52.404;13.532;2023-06-26T00:41:35;17.80;99.90
52481;DHT22;38393;52.404;13.532;2023-06-26T00:44:01;17.80;99.90
52481;DHT22;38393;52.404;13.532;2023-06-26T00:46:26;17.80;99.90
52481;DHT22;38393;52.404;13.532;2023-06-26T00:48:52;17.80;99.90
52481;DHT22;38393;52.404;13.532;2023-06-26T00:51:18;17.80;99.90
52481;DHT22;38393;52.404;13.532;2023-06-26T00:53:44;17.70;99.90
52481;DHT22;38393;52.404;13.532;2023-06-26T00:56:10;17.50;99.90
52481;DHT22;38393;52.404;13.532;2023-06-26T00:58:36;17.60;99.90
52481;DHT22;38393;52.404;13.532;2023-06-26T01:01:02;17.70;99.90
52481;DHT22;38393;52.404;13.532;2023-06-26T01:03:28;17.60;99.90
52481;DHT22;38393;52.404;13.532;2023-06-26T01:05:56;17.60;99.90
52481;DHT22;38393;52.404;13.532;2023-06-26T01:08:24;17.60;99.90
52481;DHT22;38393;52.404;13.532;2023-06-26T01:10:50;17.60;99.90
52481;DHT22;38393;52.404;13.532;2023-06-26T01:13:16;17.60;99.90
52481;DHT22;38393;52.404;13.532;2023-06-26T01:15:42;17.50;99.90
52481;DHT22;38393;52.404;13.532;2023-06-26T01:18:08;17.60;99.90
52481;DHT22;38393;52.404;13.532;2023-06-26T01:20:38;17.60;99.90
52481;DHT22;38393;52.404;13.532;2023-06-26T01:26:20;17.60;99.90
52481;DHT22;38393;52.404;13.532;2023-06-26T01:28:46;17.50;99.90
52481;DHT22;38393;52.404;13.532;2023-06-26T01:31:12;17.50;99.90
52481;DHT22;38393;52.404;13.532;2023-06-26T01:33:39;17.50;99.90
52481;DHT22;38393;52.404;13.532;2023-06-26T01:36:05;17.60;99.90
52481;DHT22;38393;52.404;13.532;2023-06-26T01:38:31;17.60;99.90
52481;DHT22;38393;52.404;13.532;2023-06-26T01:40:56;17.60;99.90
52481;DHT22;38393;52.404;13.532;2023-06-26T01:46:18;17.40;99.90
52481;DHT22;38393;52.404;13.532;2023-06-26T01:49:03;17.50;99.90
52481;DHT22;38393;52.404;13.532;2023-06-26T01:51:36;17.40;99.90
52481;DHT22;38393;52.404;13.532;2023-06-26T01:54:06;17.50;99.90
52481;DHT22;38393;52.404;13.532;2023-06-26T01:56:33;17.40;99.90
52481;DHT22;38393;52.404;13.532;2023-06-26T01:59:02;17.40;99.90
52481;DHT22;38393;52.404;13.532;2023-06-26T02:01:31;17.30;99.90
52481;DHT22;38393;52.404;13.532;2023-06-26T02:03:59;17.40;99.90
52481;DHT22;38393;52.404;13.532;2023-06-26T02:06:24;17.40;99.90
52481;DHT22;38393;52.404;13.532;2023-06-26T02:08:50;17.40;99.90
52481;DHT22;38393;52.404;13.532;2023-06-26T02:11:15;17.30;99.90
52481;DHT22;38393;52.404;13.532;2023-06-26T02:13:41;17.20;99.90
52481;DHT22;38393;52.404;13.532;2023-06-26T02:16:06;17.20;99.90
52481;DHT22;38393;52.404;13.532;2023-06-26T02:18:31;17.30;99.90
52481;DHT22;38393;52.404;13.532;2023-06-26T02:20:57;17.20;99.90
52481;DHT22;38393;52.404;13.532;2023-06-26T02:23:22;17.20;99.90
52481;DHT22;38393;52.404;13.532;2023-06-26T02:25:48;17.20;99.90
52481;DHT22;38393;52.404;13.532;2023-06-26T02:28:13;17.30;99.90
52481;DHT22;38393;52.404;13.532;2023-06-26T02:30:39;17.20;99.90
52481;DHT22;38393;52.404;13.532;2023-06-26T02:33:04;17.20;99.90
52481;DHT22;38393;52.404;13.532;2023-06-26T02:35:30;17.30;99.90
52481;DHT22;38393;52.404;13.532;2023-06-26T02:37:55;17.20;99.90
52481;DHT22;38393;52.404;13.532;2023-06-26T02:40:20;17.20;99.90
52481;DHT22;38393;52.404;13.532;2023-06-26T02:42:46;17.20;99.90
52481;DHT22;38393;52.404;13.532;2023-06-26T02:45:11;17.20;99.90
52481;DHT22;38393;52.404;13.532;2023-06-26T02:47:37;17.30;99.90
52481;DHT22;38393;52.404;13.532;2023-06-26T02:50:06;17.20;99.90
52481;DHT22;38393;52.404;13.532;2023-06-26T02:52:31;17.20;99.90
52481;DHT22;38393;52.404;13.532;2023-06-26T02:54:57;17.10;99.90
52481;DHT22;38393;52.404;13.532;2023-06-26T02:57:22;17.10;99.90
52481;DHT22;38393;52.404;13.532;2023-06-26T02:59:48;17.00;99.90
52481;DHT22;38393;52.404;13.532;2023-06-26T03:02:13;17.00;99.90
52481;DHT22;38393;52.404;13.532;2023-06-26T03:04:39;17.00;99.90
52481;DHT22;38393;52.404;13.532;2023-06-26T03:07:04;17.00;99.90
52481;DHT22;38393;52.404;13.532;2023-06-26T03:09:29;17.00;99.90
52481;DHT22;38393;52.404;13.532;2023-06-26T03:11:55;17.00;99.90
52481;DHT22;38393;52.404;13.532;2023-06-26T03:14:21;17.10;99.90
52481;DHT22;38393;52.404;13.532;2023-06-26T03:16:46;17.00;99.90
52481;DHT22;38393;52.404;13.532;2023-06-26T03:19:12;16.80;99.90
52481;DHT22;38393;52.404;13.532;2023-06-26T03:21:37;17.00;99.90
52481;DHT22;38393;52.404;13.532;2023-06-26T03:24:03;17.00;99.90
52481;DHT22;38393;52.404;13.532;2023-06-26T03:26:28;17.00;99.90
52481;DHT22;38393;52.404;13.532;2023-06-26T03:28:54;17.00;99.90
52481;DHT22;38393;52.404;13.532;2023-06-26T03:31:20;17.00;99.90
52481;DHT22;38393;52.404;13.532;2023-06-26T03:33:46;17.10;99.90
52481;DHT22;38393;52.404;13.532;2023-06-26T03:36:11;17.10;99.90
52481;DHT22;38393;52.404;13.532;2023-06-26T03:38:37;17.30;99.90
52481;DHT22;38393;52.404;13.532;2023-06-26T03:41:02;17.10;99.90
52481;DHT22;38393;52.404;13.532;2023-06-26T03:43:28;17.20;99.90
52481;DHT22;38393;52.404;13.532;2023-06-26T03:45:53;17.30;99.90
52481;DHT22;38393;52.404;13.532;2023-06-26T03:48:19;17.30;99.90
52481;DHT22;38393;52.404;13.532;2023-06-26T03:50:45;17.40;99.90
52481;DHT22;38393;52.404;13.532;2023-06-26T03:53:10;17.50;99.90
52481;DHT22;38393;52.404;13.532;2023-06-26T03:55:37;17.60;99.90
52481;DHT22;38393;52.404;13.532;2023-06-26T03:58:03;17.70;99.90
52481;DHT22;38393;52.404;13.532;2023-06-26T04:00:29;17.80;99.90
52481;DHT22;38393;52.404;13.532;2023-06-26T04:02:54;18.10;99.90
52481;DHT22;38393;52.404;13.532;2023-06-26T04:05:20;18.10;99.90
52481;DHT22;38393;52.404;13.532;2023-06-26T04:07:45;18.40;99.90
52481;DHT22;38393;52.404;13.532;2023-06-26T04:10:14;18.50;99.90
52481;DHT22;38393;52.404;13.532;2023-06-26T04:12:39;18.80;99.90
52481;DHT22;38393;52.404;13.532;2023-06-26T04:15:05;18.80;99.90
52481;DHT22;38393;52.404;13.532;2023-06-26T04:17:31;19.00;99.90
52481;DHT22;38393;52.404;13.532;2023-06-26T04:19:57;19.20;99.90
52481;DHT22;38393;52.404;13.532;2023-06-26T04:22:22;19.20;99.90
52481;DHT22;38393;52.404;13.532;2023-06-26T04:24:48;19.30;99.90
52481;DHT22;38393;52.404;13.532;2023-06-26T04:27:13;19.40;99.90
52481;DHT22;38393;52.404;13.532;2023-06-26T04:29:39;19.40;99.90
52481;DHT22;38393;52.404;13.532;2023-06-26T04:32:05;19.40;99.90
52481;DHT22;38393;52.404;13.532;2023-06-26T04:34:30;19.40;99.90
52481;DHT22;38393;52.404;13.532;2023-06-26T04:37:00;19.40;99.90
52481;DHT22;38393;52.404;13.532;2023-06-26T04:39:25;19.50;99.90
52481;DHT22;38393;52.404;13.532;2023-06-26T04:41:51;19.50;99.90
52481;DHT22;38393;52.404;13.532;2023-06-26T04:44:16;19.50;99.90
52481;DHT22;38393;52.404;13.532;2023-06-26T04:46:42;19.50;99.90
52481;DHT22;38393;52.404;13.532;2023-06-26T04:49:10;19.60;99.90
52481;DHT22;38393;52.404;13.532;2023-06-26T04:51:36;19.50;99.90
52481;DHT22;38393;52.404;13.532;2023-06-26T04:54:09;19.70;99.90
52481;DHT22;38393;52.404;13.532;2023-06-26T04:56:35;19.80;99.90
52481;DHT22;38393;52.404;13.532;2023-06-26T04:59:01;19.80;99.90
52481;DHT22;38393;52.404;13.532;2023-06-26T05:01:27;19.80;99.90
52481;DHT22;38393;52.404;13.532;2023-06-26T05:04:04;19.80;99.90
52481;DHT22;38393;52.404;13.532;2023-06-26T05:06:29;19.90;99.90
52481;DHT22;38393;52.404;13.532;2023-06-26T05:08:54;19.90;99.90
52481;DHT22;38393;52.404;13.532;2023-06-26T05:11:21;20.00;99.90
52481;DHT22;38393;52.404;13.532;2023-06-26T05:13:46;20.00;99.90
52481;DHT22;38393;52.404;13.532;2023-06-26T05:16:11;20.20;99.90
52481;DHT22;38393;52.404;13.532;2023-06-26T05:18:37;20.30;99.90
52481;DHT22;38393;52.404;13.532;2023-06-26T05:21:03;20.50;99.90
52481;DHT22;38393;52.404;13.532;2023-06-26T05:23:33;20.60;99.90
52481;DHT22;38393;52.404;13.532;2023-06-26T05:26:02;20.80;99.90
52481;DHT22;38393;52.404;13.532;2023-06-26T05:28:28;21.00;99.90
52481;DHT22;38393;52.404;13.532;2023-06-26T05:30:56;21.00;99.90
52481;DHT22;38393;52.404;13.532;2023-06-26T05:33:24;21.00;99.90
52481;DHT22;38393;52.404;13.532;2023-06-26T05:35:52;21.00;99.90
52481;DHT22;38393;52.404;13.532;2023-06-26T05:38:18;21.10;99.90
52481;DHT22;38393;52.404;13.532;2023-06-26T05:40:44;21.20;99.90
52481;DHT22;38393;52.404;13.532;2023-06-26T05:43:10;21.10;99.90
52481;DHT22;38393;52.404;13.532;2023-06-26T05:45:35;21.30;99.90
52481;DHT22;38393;52.404;13.532;2023-06-26T05:48:01;21.60;99.90
52481;DHT22;38393;52.404;13.532;2023-06-26T05:50:27;21.60;99.90
52481;DHT22;38393;52.404;13.532;2023-06-26T05:52:53;21.70;99.90
52481;DHT22;38393;52.404;13.532;2023-06-26T05:55:19;21.80;99.50
52481;DHT22;38393;52.404;13.532;2023-06-26T05:57:46;21.70;99.00
52481;DHT22;38393;52.404;13.532;2023-06-26T06:00:12;21.80;98.70
52481;DHT22;38393;52.404;13.532;2023-06-26T06:02:38;22.00;97.70
52481;DHT22;38393;52.404;13.532;2023-06-26T06:05:04;22.20;95.60
52481;DHT22;38393;52.404;13.532;2023-06-26T06:07:32;22.60;94.60
52481;DHT22;38393;52.404;13.532;2023-06-26T06:09:58;22.90;94.20
52481;DHT22;38393;52.404;13.532;2023-06-26T06:12:23;22.90;92.20
52481;DHT22;38393;52.404;13.532;2023-06-26T06:14:48;23.00;91.40
52481;DHT22;38393;52.404;13.532;2023-06-26T06:17:14;23.10;92.50
52481;DHT22;38393;52.404;13.532;2023-06-26T06:19:39;22.80;90.40
52481;DHT22;38393;52.404;13.532;2023-06-26T06:22:05;23.10;91.10
52481;DHT22;38393;52.404;13.532;2023-06-26T06:24:30;23.20;89.60
52481;DHT22;38393;52.404;13.532;2023-06-26T06:26:56;23.50;88.60
52481;DHT22;38393;52.404;13.532;2023-06-26T06:29:21;23.70;86.40
52481;DHT22;38393;52.404;13.532;2023-06-26T06:31:47;23.80;86.80
52481;DHT22;38393;52.404;13.532;2023-06-26T06:34:12;23.90;82.90
52481;DHT22;38393;52.404;13.532;2023-06-26T06:36:38;24.10;84.60
52481;DHT22;38393;52.404;13.532;2023-06-26T06:39:03;24.10;83.50
52481;DHT22;38393;52.404;13.532;2023-06-26T06:41:29;24.10;83.80
52481;DHT22;38393;52.404;13.532;2023-06-26T06:43:54;24.20;83.80
52481;DHT22;38393;52.404;13.532;2023-06-26T06:46:20;24.60;79.50
52481;DHT22;38393;52.404;13.532;2023-06-26T06:48:45;24.60;81.90
52481;DHT22;38393;52.404;13.532;2023-06-26T06:51:12;24.80;77.70
52481;DHT22;38393;52.404;13.532;2023-06-26T06:53:37;24.70;74.80
52481;DHT22;38393;52.404;13.532;2023-06-26T06:56:03;24.60;72.10
52481;DHT22;38393;52.404;13.532;2023-06-26T06:58:29;24.90;75.60
52481;DHT22;38393;52.404;13.532;2023-06-26T07:00:56;24.90;76.00
52481;DHT22;38393;52.404;13.532;2023-06-26T07:03:21;25.00;74.30
52481;DHT22;38393;52.404;13.532;2023-06-26T07:05:47;25.30;76.30
52481;DHT22;38393;52.404;13.532;2023-06-26T07:08:12;25.40;74.30
52481;DHT22;38393;52.404;13.532;2023-06-26T07:10:38;25.50;71.70
52481;DHT22;38393;52.404;13.532;2023-06-26T07:13:04;25.40;74.90
52481;DHT22;38393;52.404;13.532;2023-06-26T07:15:29;25.50;72.50
52481;DHT22;38393;52.404;13.532;2023-06-26T07:17:55;25.70;73.10
52481;DHT22;38393;52.404;13.532;2023-06-26T07:20:20;25.80;72.20
52481;DHT22;38393;52.404;13.532;2023-06-26T07:22:45;26.00;71.10
52481;DHT22;38393;52.404;13.532;2023-06-26T07:25:12;25.90;71.20
52481;DHT22;38393;52.404;13.532;2023-06-26T07:27:38;25.80;67.60
52481;DHT22;38393;52.404;13.532;2023-06-26T07:30:04;26.00;70.50
52481;DHT22;38393;52.404;13.532;2023-06-26T07:32:29;26.10;70.70
52481;DHT22;38393;52.404;13.532;2023-06-26T07:34:55;26.10;67.50
52481;DHT22;38393;52.404;13.532;2023-06-26T07:37:20;26.30;67.90
52481;DHT22;38393;52.404;13.532;2023-06-26T07:39:47;26.30;66.70
52481;DHT22;38393;52.404;13.532;2023-06-26T07:42:12;26.50;69.00
52481;DHT22;38393;52.404;13.532;2023-06-26T07:44:37;26.60;65.60
52481;DHT22;38393;52.404;13.532;2023-06-26T07:47:03;26.60;67.00
52481;DHT22;38393;52.404;13.532;2023-06-26T07:49:29;26.80;65.90
52481;DHT22;38393;52.404;13.532;2023-06-26T07:51:54;26.60;65.50
52481;DHT22;38393;52.404;13.532;2023-06-26T07:54:20;26.50;62.50
52481;DHT22;38393;52.404;13.532;2023-06-26T07:57:00;26.70;64.60
52481;DHT22;38393;52.404;13.532;2023-06-26T07:59:28;26.60;64.60
52481;DHT22;38393;52.404;13.532;2023-06-26T08:01:55;26.80;64.70
52481;DHT22;38393;52.404;13.532;2023-06-26T08:04:23;26.70;62.90
52481;DHT22;38393;52.404;13.532;2023-06-26T08:06:49;26.90;62.80
52481;DHT22;38393;52.404;13.532;2023-06-26T08:09:15;27.00;61.40
52481;DHT22;38393;52.404;13.532;2023-06-26T08:11:41;27.30;61.80
52481;DHT22;38393;52.404;13.532;2023-06-26T08:14:06;27.00;62.50
52481;DHT22;38393;52.404;13.532;2023-06-26T08:16:32;26.90;56.90
52481;DHT22;38393;52.404;13.532;2023-06-26T08:18:57;27.00;57.40
52481;DHT22;38393;52.404;13.532;2023-06-26T08:21:23;26.90;58.30
52481;DHT22;38393;52.404;13.532;2023-06-26T08:23:48;27.30;60.80
52481;DHT22;38393;52.404;13.532;2023-06-26T08:26:14;27.40;60.40
52481;DHT22;38393;52.404;13.532;2023-06-26T08:28:39;27.70;60.70
52481;DHT22;38393;52.404;13.532;2023-06-26T08:31:05;27.60;59.30
52481;DHT22;38393;52.404;13.532;2023-06-26T08:33:30;27.70;57.70
52481;DHT22;38393;52.404;13.532;2023-06-26T08:35:56;27.70;55.80
52481;DHT22;38393;52.404;13.532;2023-06-26T08:38:21;27.90;55.10
52481;DHT22;38393;52.404;13.532;2023-06-26T08:40:47;27.80;56.60
52481;DHT22;38393;52.404;13.532;2023-06-26T08:43:13;27.90;55.90
52481;DHT22;38393;52.404;13.532;2023-06-26T08:45:38;27.70;57.10
52481;DHT22;38393;52.404;13.532;2023-06-26T08:48:07;27.70;57.50
52481;DHT22;38393;52.404;13.532;2023-06-26T08:50:34;27.90;55.70
52481;DHT22;38393;52.404;13.532;2023-06-26T08:55:58;28.10;55.70
52481;DHT22;38393;52.404;13.532;2023-06-26T08:58:24;27.90;54.30
52481;DHT22;38393;52.404;13.532;2023-06-26T09:00:50;28.10;57.30
52481;DHT22;38393;52.404;13.532;2023-06-26T09:03:17;28.30;55.40
52481;DHT22;38393;52.404;13.532;2023-06-26T09:05:42;28.30;57.20
52481;DHT22;38393;52.404;13.532;2023-06-26T09:08:08;28.30;54.30
52481;DHT22;38393;52.404;13.532;2023-06-26T09:10:34;28.20;53.90
52481;DHT22;38393;52.404;13.532;2023-06-26T09:12:59;28.20;55.70
52481;DHT22;38393;52.404;13.532;2023-06-26T09:15:27;28.40;52.30
52481;DHT22;38393;52.404;13.532;2023-06-26T09:17:56;28.30;53.00
52481;DHT22;38393;52.404;13.532;2023-06-26T09:20:22;28.40;52.90
52481;DHT22;38393;52.404;13.532;2023-06-26T09:22:48;28.60;53.20
52481;DHT22;38393;52.404;13.532;2023-06-26T09:25:14;28.60;51.30
52481;DHT22;38393;52.404;13.532;2023-06-26T09:27:39;28.60;55.10
52481;DHT22;38393;52.404;13.532;2023-06-26T09:30:06;28.50;51.80
52481;DHT22;38393;52.404;13.532;2023-06-26T09:32:35;28.50;53.60
52481;DHT22;38393;52.404;13.532;2023-06-26T09:35:02;28.40;50.80
52481;DHT22;38393;52.404;13.532;2023-06-26T09:37:28;28.60;55.20
52481;DHT22;38393;52.404;13.532;2023-06-26T09:39:54;28.50;51.50
52481;DHT22;38393;52.404;13.532;2023-06-26T09:42:19;28.60;53.80
52481;DHT22;38393;52.404;13.532;2023-06-26T09:44:48;28.80;54.60
52481;DHT22;38393;52.404;13.532;2023-06-26T09:47:18;28.90;51.50
52481;DHT22;38393;52.404;13.532;2023-06-26T09:49:44;28.90;52.20
52481;DHT22;38393;52.404;13.532;2023-06-26T09:52:14;28.90;52.20
52481;DHT22;38393;52.404;13.532;2023-06-26T09:54:40;29.20;54.20
52481;DHT22;38393;52.404;13.532;2023-06-26T09:57:10;29.30;53.50
52481;DHT22;38393;52.404;13.532;2023-06-26T09:59:36;29.10;50.90
52481;DHT22;38393;52.404;13.532;2023-06-26T10:02:02;29.10;48.80
52481;DHT22;38393;52.404;13.532;2023-06-26T10:04:27;28.80;49.20
52481;DHT22;38393;52.404;13.532;2023-06-26T10:06:56;28.90;50.40
52481;DHT22;38393;52.404;13.532;2023-06-26T10:09:22;29.00;47.90
52481;DHT22;38393;52.404;13.532;2023-06-26T10:11:57;29.00;47.10
52481;DHT22;38393;52.404;13.532;2023-06-26T10:14:27;29.00;46.00
52481;DHT22;38393;52.404;13.532;2023-06-26T10:16:57;28.70;46.90
52481;DHT22;38393;52.404;13.532;2023-06-26T10:19:24;28.80;47.90
52481;DHT22;38393;52.404;13.532;2023-06-26T10:21:53;29.20;46.90
52481;DHT22;38393;52.404;13.532;2023-06-26T10:24:20;29.50;51.00
52481;DHT22;38393;52.404;13.532;2023-06-26T10:26:50;29.20;48.80
52481;DHT22;38393;52.404;13.532;2023-06-26T10:29:17;29.20;47.00
52481;DHT22;38393;52.404;13.532;2023-06-26T10:31:48;29.20;48.00
52481;DHT22;38393;52.404;13.532;2023-06-26T10:34:15;29.70;47.80
52481;DHT22;38393;52.404;13.532;2023-06-26T10:36:41;29.60;50.50
52481;DHT22;38393;52.404;13.532;2023-06-26T10:39:07;29.60;48.10
52481;DHT22;38393;52.404;13.532;2023-06-26T10:41:41;29.90;49.50
52481;DHT22;38393;52.404;13.532;2023-06-26T10:44:08;29.50;47.40
52481;DHT22;38393;52.404;13.532;2023-06-26T10:46:48;29.60;48.80
52481;DHT22;38393;52.404;13.532;2023-06-26T10:49:14;29.70;50.20
52481;DHT22;38393;52.404;13.532;2023-06-26T10:51:49;29.80;48.10
52481;DHT22;38393;52.404;13.532;2023-06-26T10:54:15;29.80;48.10
52481;DHT22;38393;52.404;13.532;2023-06-26T10:56:48;30.00;46.20
52481;DHT22;38393;52.404;13.532;2023-06-26T10:59:19;30.10;49.10
52481;DHT22;38393;52.404;13.532;2023-06-26T11:01:47;30.10;47.90
52481;DHT22;38393;52.404;13.532;2023-06-26T11:04:18;30.10;50.60
52481;DHT22;38393;52.404;13.532;2023-06-26T11:07:24;30.20;48.50
52481;DHT22;38393;52.404;13.532;2023-06-26T11:10:08;30.30;50.40
52481;DHT22;38393;52.404;13.532;2023-06-26T11:12:38;30.60;45.00
52481;DHT22;38393;52.404;13.532;2023-06-26T11:15:09;30.60;45.10
52481;DHT22;38393;52.404;13.532;2023-06-26T11:17:36;30.20;44.80
52481;DHT22;38393;52.404;13.532;2023-06-26T11:20:20;30.30;46.40
52481;DHT22;38393;52.404;13.532;2023-06-26T11:22:46;30.40;46.60
52481;DHT22;38393;52.404;13.532;2023-06-26T11:25:11;30.10;46.60
52481;DHT22;38393;52.404;13.532;2023-06-26T11:27:43;30.30;47.50
52481;DHT22;38393;52.404;13.532;2023-06-26T11:30:10;30.70;49.60
52481;DHT22;38393;52.404;13.532;2023-06-26T11:32:37;30.60;44.40
52481;DHT22;38393;52.404;13.532;2023-06-26T11:35:03;30.70;43.80
52481;DHT22;38393;52.404;13.532;2023-06-26T11:37:32;30.60;44.60
52481;DHT22;38393;52.404;13.532;2023-06-26T11:39:58;30.70;46.30
52481;DHT22;38393;52.404;13.532;2023-06-26T11:42:23;30.80;47.70
52481;DHT22;38393;52.404;13.532;2023-06-26T11:44:51;30.70;45.80
52481;DHT22;38393;52.404;13.532;2023-06-26T11:47:19;30.80;44.40
52481;DHT22;38393;52.404;13.532;2023-06-26T11:49:47;30.70;46.20
52481;DHT22;38393;52.404;13.532;2023-06-26T11:52:14;30.30;43.70
52481;DHT22;38393;52.404;13.532;2023-06-26T11:54:40;30.30;44.30
52481;DHT22;38393;52.404;13.532;2023-06-26T11:57:06;30.60;44.90
52481;DHT22;38393;52.404;13.532;2023-06-26T11:59:39;30.50;44.00
52481;DHT22;38393;52.404;13.532;2023-06-26T12:02:11;30.50;47.00
52481;DHT22;38393;52.404;13.532;2023-06-26T12:04:40;30.60;47.80
52481;DHT22;38393;52.404;13.532;2023-06-26T12:07:07;30.60;44.60
52481;DHT22;38393;52.404;13.532;2023-06-26T12:09:41;30.60;46.10
52481;DHT22;38393;52.404;13.532;2023-06-26T12:12:08;30.70;47.80
52481;DHT22;38393;52.404;13.532;2023-06-26T12:14:34;30.90;46.30
52481;DHT22;38393;52.404;13.532;2023-06-26T12:17:09;31.10;48.40
52481;DHT22;38393;52.404;13.532;2023-06-26T12:19:43;30.70;44.60
52481;DHT22;38393;52.404;13.532;2023-06-26T12:22:09;30.20;46.10
52481;DHT22;38393;52.404;13.532;2023-06-26T12:24:37;30.50;47.10
52481;DHT22;38393;52.404;13.532;2023-06-26T12:27:11;30.90;46.60
52481;DHT22;38393;52.404;13.532;2023-06-26T12:29:38;31.10;46.90
52481;DHT22;38393;52.404;13.532;2023-06-26T12:32:07;31.00;44.50
52481;DHT22;38393;52.404;13.532;2023-06-26T12:34:34;30.70;42.50
52481;DHT22;38393;52.404;13.532;2023-06-26T12:37:02;30.70;42.50
52481;DHT22;38393;52.404;13.532;2023-06-26T12:39:29;30.80;43.60
52481;DHT22;38393;52.404;13.532;2023-06-26T12:41:57;31.10;46.10
52481;DHT22;38393;52.404;13.532;2023-06-26T12:44:30;31.20;42.20
52481;DHT22;38393;52.404;13.532;2023-06-26T12:47:00;31.10;45.30
52481;DHT22;38393;52.404;13.532;2023-06-26T12:49:45;30.50;43.50
52481;DHT22;38393;52.404;13.532;2023-06-26T12:52:16;30.10;44.80
52481;DHT22;38393;52.404;13.532;2023-06-26T12:54:44;30.50;46.40
52481;DHT22;38393;52.404;13.532;2023-06-26T12:57:10;30.60;44.70
52481;DHT22;38393;52.404;13.532;2023-06-26T12:59:37;30.20;45.90
52481;DHT22;38393;52.404;13.532;2023-06-26T13:02:03;30.20;47.30
52481;DHT22;38393;52.404;13.532;2023-06-26T13:04:29;31.00;45.20
52481;DHT22;38393;52.404;13.532;2023-06-26T13:06:54;31.30;43.20
52481;DHT22;38393;52.404;13.532;2023-06-26T13:09:20;30.80;44.40
52481;DHT22;38393;52.404;13.532;2023-06-26T13:11:46;30.60;44.40
52481;DHT22;38393;52.404;13.532;2023-06-26T13:14:11;30.50;45.50
52481;DHT22;38393;52.404;13.532;2023-06-26T13:16:37;30.50;45.20
52481;DHT22;38393;52.404;13.532;2023-06-26T13:19:02;30.60;45.20
52481;DHT22;38393;52.404;13.532;2023-06-26T13:21:28;30.80;44.90
52481;DHT22;38393;52.404;13.532;2023-06-26T13:23:55;30.80;46.30
52481;DHT22;38393;52.404;13.532;2023-06-26T13:26:21;30.80;44.60
52481;DHT22;38393;52.404;13.532;2023-06-26T13:28:50;30.70;45.10
52481;DHT22;38393;52.404;13.532;2023-06-26T13:31:16;30.60;45.60
52481;DHT22;38393;52.404;13.532;2023-06-26T13:33:41;30.30;45.40
52481;DHT22;38393;52.404;13.532;2023-06-26T13:36:07;30.30;46.00
52481;DHT22;38393;52.404;13.532;2023-06-26T13:38:33;30.50;46.00
52481;DHT22;38393;52.404;13.532;2023-06-26T13:40:59;30.60;46.30
52481;DHT22;38393;52.404;13.532;2023-06-26T13:43:27;30.80;44.20
52481;DHT22;38393;52.404;13.532;2023-06-26T13:45:53;31.40;45.20
52481;DHT22;38393;52.404;13.532;2023-06-26T13:48:19;31.70;43.80
52481;DHT22;38393;52.404;13.532;2023-06-26T13:50:45;31.60;42.80
52481;DHT22;38393;52.404;13.532;2023-06-26T13:53:11;31.90;42.90
52481;DHT22;38393;52.404;13.532;2023-06-26T13:55:37;32.00;41.50
52481;DHT22;38393;52.404;13.532;2023-06-26T13:58:04;32.30;45.20
52481;DHT22;38393;52.404;13.532;2023-06-26T14:00:30;32.60;44.10
52481;DHT22;38393;52.404;13.532;2023-06-26T14:02:56;32.90;41.90
52481;DHT22;38393;52.404;13.532;2023-06-26T14:05:22;32.60;41.00
52481;DHT22;38393;52.404;13.532;2023-06-26T14:07:48;32.50;40.20
52481;DHT22;38393;52.404;13.532;2023-06-26T14:10:14;32.30;42.50
52481;DHT22;38393;52.404;13.532;2023-06-26T14:12:40;31.40;40.80
52481;DHT22;38393;52.404;13.532;2023-06-26T14:15:06;30.90;45.20
52481;DHT22;38393;52.404;13.532;2023-06-26T14:17:32;30.50;44.20
52481;DHT22;38393;52.404;13.532;2023-06-26T14:19:58;30.20;45.60
52481;DHT22;38393;52.404;13.532;2023-06-26T14:22:24;30.00;45.10
52481;DHT22;38393;52.404;13.532;2023-06-26T14:24:50;29.60;46.80
52481;DHT22;38393;52.404;13.532;2023-06-26T14:27:15;29.50;45.60
52481;DHT22;38393;52.404;13.532;2023-06-26T14:29:41;29.30;46.00
52481;DHT22;38393;52.404;13.532;2023-06-26T14:32:07;29.20;45.20
52481;DHT22;38393;52.404;13.532;2023-06-26T14:34:32;29.20;44.40
52481;DHT22;38393;52.404;13.532;2023-06-26T14:36:58;29.20;44.70
52481;DHT22;38393;52.404;13.532;2023-06-26T14:39:24;29.10;46.40
52481;DHT22;38393;52.404;13.532;2023-06-26T14:41:49;26.90;56.00
52481;DHT22;38393;52.404;13.532;2023-06-26T14:44:15;23.60;99.90
52481;DHT22;38393;52.404;13.532;2023-06-26T14:46:41;20.00;99.90
52481;DHT22;38393;52.404;13.532;2023-06-26T14:49:06;19.40;99.90
52481;DHT22;38393;52.404;13.532;2023-06-26T14:51:32;18.80;99.90
52481;DHT22;38393;52.404;13.532;2023-06-26T14:53:57;18.70;99.90
52481;DHT22;38393;52.404;13.532;2023-06-26T14:56:23;18.50;99.90
52481;DHT22;38393;52.404;13.532;2023-06-26T14:58:49;18.70;99.90
52481;DHT22;38393;52.404;13.532;2023-06-26T15:01:16;18.90;99.90
52481;DHT22;38393;52.404;13.532;2023-06-26T15:03:42;19.00;99.90
52481;DHT22;38393;52.404;13.532;2023-06-26T15:06:07;18.90;99.90
52481;DHT22;38393;52.404;13.532;2023-06-26T15:08:34;18.90;99.90
52481;DHT22;38393;52.404;13.532;2023-06-26T15:11:01;19.00;99.90
52481;DHT22;38393;52.404;13.532;2023-06-26T15:13:28;18.90;99.90
52481;DHT22;38393;52.404;13.532;2023-06-26T15:15:53;19.00;99.90
52481;DHT22;38393;52.404;13.532;2023-06-26T15:18:19;19.30;99.90
52481;DHT22;38393;52.404;13.532;2023-06-26T15:20:44;19.30;99.90